Time;durP1;ratioP1;P1;durP2;ratioP2;P2;SDS_P1;SDS_P2;PMS_P1;PMS_P2;Temp;Humidity;BMP_temperature;BMP_pressure;BME280_temperature;BME280_humidity;BME280_pressure;Samples;Min_cycle;Max_cycle;Signal;HPM_P1;HPM_P2
2023/11/20 00:00:26;;;;;;;49.30;23.60;;;3.10;99.90;;;;;;5038640;28;20022;-74
2023/11/20 00:02:52;;;;;;;45.08;22.23;;;3.00;99.90;;;;;;5038659;28;20046;-75
2023/11/20 00:05:19;;;;;;;46.20;22.67;;;3.00;99.90;;;;;;5037811;28;20084;-74
2023/11/20 00:07:46;;;;;;;46.05;21.92;;;3.00;99.90;;;;;;5038351;28;20052;-80
2023/11/20 00:10:12;;;;;;;37.53;20.70;;;3.10;99.90;;;;;;4971852;28;20773;-75
2023/11/20 00:12:38;;;;;;;41.22;21.08;;;3.00;99.90;;;;;;4971710;28;20046;-75
2023/11/20 00:15:05;;;;;;;48.80;23.52;;;3.00;99.90;;;;;;4971837;28;20033;-75
2023/11/20 00:17:30;;;;;;;48.80;23.73;;;3.10;99.90;;;;;;4971349;28;20084;-75
2023/11/20 00:19:56;;;;;;;40.38;22.98;;;3.10;99.90;;;;;;4971847;28;20035;-74
2023/11/20 00:22:22;;;;;;;36.47;19.30;;;3.00;99.90;;;;;;5031984;28;20022;-74
2023/11/20 00:24:47;;;;;;;40.75;20.83;;;3.10;99.90;;;;;;5038193;28;20069;-74
2023/11/20 00:27:13;;;;;;;41.08;21.98;;;3.10;99.90;;;;;;5038012;28;20446;-74
2023/11/20 00:29:38;;;;;;;40.97;21.98;;;3.10;99.90;;;;;;5038257;28;20042;-74
2023/11/20 00:32:05;;;;;;;42.55;21.73;;;3.00;99.90;;;;;;4971385;28;20117;-80
2023/11/20 00:34:30;;;;;;;35.15;19.92;;;3.10;99.90;;;;;;4971457;28;20038;-79
2023/11/20 00:36:57;;;;;;;43.03;20.17;;;3.10;99.90;;;;;;4965495;28;20023;-80
2023/11/20 00:39:22;;;;;;;37.85;19.52;;;3.10;99.90;;;;;;4971584;28;20027;-80
2023/11/20 00:41:48;;;;;;;42.80;21.60;;;3.10;99.90;;;;;;5037623;28;20046;-81
2023/11/20 00:44:14;;;;;;;43.58;21.02;;;3.10;99.90;;;;;;4970425;28;20051;-81
2023/11/20 00:46:40;;;;;;;43.70;22.15;;;3.10;99.90;;;;;;4971088;28;20039;-80
2023/11/20 00:49:06;;;;;;;42.13;21.60;;;3.10;99.90;;;;;;5038152;28;20110;-80
2023/11/20 00:51:32;;;;;;;42.95;22.10;;;3.10;99.90;;;;;;4971143;28;20035;-81
2023/11/20 00:53:58;;;;;;;43.42;22.55;;;3.10;99.90;;;;;;4964729;28;20023;-80
2023/11/20 00:56:24;;;;;;;44.13;20.48;;;3.10;99.90;;;;;;5037882;28;20030;-80
2023/11/20 00:58:49;;;;;;;45.72;23.55;;;3.10;99.90;;;;;;4971308;28;20048;-80
2023/11/20 01:01:16;;;;;;;40.83;21.05;;;3.10;99.90;;;;;;4970861;28;20597;-74
2023/11/20 01:03:41;;;;;;;35.65;18.90;;;3.10;99.90;;;;;;5037064;28;20043;-79
2023/11/20 01:06:08;;;;;;;35.92;19.48;;;3.10;99.90;;;;;;4970921;28;20083;-79
2023/11/20 01:08:35;;;;;;;40.08;19.90;;;3.10;99.90;;;;;;5037305;28;20054;-74
2023/11/20 01:11:02;;;;;;;44.30;22.77;;;3.10;99.90;;;;;;4970910;28;20499;-74
2023/11/20 01:13:27;;;;;;;41.20;19.95;;;3.10;99.90;;;;;;4970853;28;20023;-74
2023/11/20 01:15:53;;;;;;;38.75;20.63;;;3.10;99.90;;;;;;5037291;28;20034;-74
2023/11/20 01:18:19;;;;;;;40.45;20.42;;;3.10;99.90;;;;;;4970921;28;20019;-80
2023/11/20 01:20:45;;;;;;;42.33;21.92;;;3.10;99.90;;;;;;5037537;28;20477;-74
2023/11/20 01:23:11;;;;;;;42.88;21.70;;;3.10;99.90;;;;;;5037591;28;20023;-74
2023/11/20 01:25:36;;;;;;;43.10;19.92;;;3.10;99.90;;;;;;4970797;28;20450;-80
2023/11/20 01:28:02;;;;;;;37.85;20.35;;;3.10;99.90;;;;;;4970792;28;20025;-80
2023/11/20 01:30:28;;;;;;;39.15;21.00;;;3.10;99.90;;;;;;4970713;28;20037;-75
2023/11/20 01:32:54;;;;;;;46.67;22.63;;;3.10;99.90;;;;;;4970751;28;20027;-74
2023/11/20 01:35:20;;;;;;;44.00;19.65;;;3.10;99.90;;;;;;4970740;28;20094;-79
2023/11/20 01:37:46;;;;;;;41.50;19.90;;;3.10;99.90;;;;;;4970944;28;20031;-74
2023/11/20 01:40:16;;;;;;;44.00;20.10;;;3.10;99.90;;;;;;4970664;28;20031;-80
2023/11/20 01:42:42;;;;;;;40.92;18.95;;;3.10;99.90;;;;;;4970343;28;20030;-80
2023/11/20 01:45:08;;;;;;;40.78;19.73;;;3.10;99.90;;;;;;4970407;28;20027;-80
2023/11/20 01:47:38;;;;;;;39.40;19.45;;;3.10;99.90;;;;;;4970531;28;20023;-79
2023/11/20 01:50:21;;;;;;;37.50;19.10;;;3.10;99.90;;;;;;5037366;28;20038;-80
2023/11/20 01:52:49;;;;;;;41.42;20.63;;;3.10;99.90;;;;;;5037110;28;20508;-80
2023/11/20 01:55:16;;;;;;;43.67;20.15;;;3.10;99.90;;;;;;5037012;28;20033;-79
2023/11/20 01:57:46;;;;;;;40.40;20.25;;;3.10;99.90;;;;;;4970336;28;20094;-74
2023/11/20 02:00:14;;;;;;;38.70;20.05;;;3.10;99.90;;;;;;5036857;28;20031;-80
2023/11/20 02:02:42;;;;;;;35.67;19.30;;;3.10;99.90;;;;;;4969679;28;20497;-74
2023/11/20 02:05:09;;;;;;;42.90;20.13;;;3.10;99.90;;;;;;5037078;28;20054;-74
2023/11/20 02:07:35;;;;;;;39.88;20.58;;;3.10;99.90;;;;;;5036708;28;20025;-74
2023/11/20 02:10:05;;;;;;;44.00;20.67;;;3.10;99.90;;;;;;4970436;28;20038;-74
2023/11/20 02:12:31;;;;;;;41.65;19.98;;;3.10;99.90;;;;;;5036482;28;20374;-74
2023/11/20 02:14:57;;;;;;;43.53;20.65;;;3.10;99.90;;;;;;5037123;28;20053;-74
2023/11/20 02:17:22;;;;;;;40.95;20.40;;;3.10;99.90;;;;;;5036714;28;20019;-74
2023/11/20 02:19:48;;;;;;;45.67;21.10;;;3.10;99.90;;;;;;5037335;28;20031;-79
2023/11/20 02:22:15;;;;;;;38.78;20.15;;;3.10;99.90;;;;;;4970144;28;20034;-74
2023/11/20 02:24:42;;;;;;;39.63;21.35;;;3.10;99.90;;;;;;4970178;28;20472;-80
2023/11/20 02:27:34;;;;;;;43.97;21.15;;;3.10;99.90;;;;;;5036633;28;20034;-75
2023/11/20 02:30:05;;;;;;;41.28;20.65;;;3.10;99.90;;;;;;4996045;28;20118;-75
2023/11/20 02:32:31;;;;;;;42.80;20.88;;;3.10;99.90;;;;;;4973665;28;20019;-75
2023/11/20 02:34:57;;;;;;;42.35;20.75;;;3.10;99.90;;;;;;4973170;28;20027;-74
2023/11/20 02:37:23;;;;;;;45.47;22.25;;;3.10;99.90;;;;;;5040242;28;20023;-75
2023/11/20 02:39:49;;;;;;;41.47;21.02;;;3.10;99.90;;;;;;5039991;28;20011;-74
2023/11/20 02:42:16;;;;;;;43.88;20.90;;;3.10;99.90;;;;;;5040108;28;20110;-74
2023/11/20 02:44:43;;;;;;;49.75;25.48;;;3.10;99.90;;;;;;5039333;28;20476;-74
2023/11/20 02:47:09;;;;;;;41.83;23.02;;;3.10;99.90;;;;;;4973158;28;20027;-74
2023/11/20 02:49:35;;;;;;;43.13;22.48;;;3.10;99.90;;;;;;4973005;28;20023;-80
2023/11/20 02:52:05;;;;;;;41.92;21.65;;;3.20;99.90;;;;;;5040087;28;20419;-74
2023/11/20 02:54:32;;;;;;;46.70;22.17;;;3.20;99.90;;;;;;5039680;28;20031;-80
2023/11/20 02:56:58;;;;;;;42.42;21.15;;;3.10;99.90;;;;;;4995136;28;20089;-80
2023/11/20 02:59:24;;;;;;;47.25;24.08;;;3.10;99.90;;;;;;4984736;28;20477;-81
2023/11/20 03:01:50;;;;;;;36.33;20.60;;;3.10;99.90;;;;;;5039052;28;20118;-75
2023/11/20 03:04:16;;;;;;;42.78;22.75;;;3.10;99.90;;;;;;4972554;28;20030;-80
2023/11/20 03:06:42;;;;;;;40.35;21.15;;;3.10;99.90;;;;;;5035337;28;20039;-79
2023/11/20 03:09:08;;;;;;;39.92;21.00;;;3.10;99.90;;;;;;4970410;28;20015;-80
2023/11/20 03:11:34;;;;;;;44.00;21.95;;;3.10;99.90;;;;;;4972693;28;20030;-80
2023/11/20 03:14:00;;;;;;;46.35;20.58;;;3.20;99.90;;;;;;5038722;28;20051;-80
2023/11/20 03:16:26;;;;;;;40.33;20.80;;;3.10;99.90;;;;;;5039555;28;20022;-79
2023/11/20 03:18:51;;;;;;;42.08;20.50;;;3.10;99.90;;;;;;5039453;28;20015;-80
2023/11/20 03:21:17;;;;;;;39.47;20.40;;;3.10;99.90;;;;;;4972601;28;20058;-74
2023/11/20 03:23:43;;;;;;;47.97;21.75;;;3.10;99.90;;;;;;5039415;28;20019;-74
2023/11/20 03:26:08;;;;;;;37.63;20.50;;;3.10;99.90;;;;;;5039356;28;20461;-74
2023/11/20 03:28:36;;;;;;;43.53;21.45;;;3.10;99.90;;;;;;5038987;28;20025;-74
2023/11/20 03:31:02;;;;;;;46.53;22.45;;;3.10;99.90;;;;;;4972498;28;20061;-79
2023/11/20 03:33:28;;;;;;;41.53;23.15;;;3.10;99.90;;;;;;4972382;28;20023;-75
2023/11/20 03:35:53;;;;;;;37.80;20.80;;;3.10;99.90;;;;;;5039050;28;20015;-74
2023/11/20 03:38:19;;;;;;;43.05;22.58;;;3.10;99.90;;;;;;4972398;28;20034;-74
2023/11/20 03:40:45;;;;;;;42.67;21.13;;;3.10;99.90;;;;;;4971051;28;20030;-74
2023/11/20 03:43:10;;;;;;;41.58;21.17;;;3.10;99.90;;;;;;4972074;28;20027;-75
2023/11/20 03:45:36;;;;;;;38.75;21.67;;;3.10;99.90;;;;;;5038834;28;20122;-74
2023/11/20 03:48:02;;;;;;;42.90;21.80;;;3.20;99.90;;;;;;5038733;28;20132;-81
2023/11/20 03:50:27;;;;;;;42.78;21.58;;;3.10;99.90;;;;;;4972392;28;20099;-74
2023/11/20 03:52:53;;;;;;;42.30;21.98;;;3.10;99.90;;;;;;4972170;28;20386;-75
2023/11/20 03:55:19;;;;;;;40.47;21.73;;;3.10;99.90;;;;;;5028403;28;20030;-81
2023/11/20 03:57:47;;;;;;;43.15;21.70;;;3.20;99.90;;;;;;5036705;28;20030;-75
2023/11/20 04:00:14;;;;;;;45.25;22.67;;;3.10;99.90;;;;;;5026163;28;20019;-75
2023/11/20 04:02:41;;;;;;;41.30;21.48;;;3.10;99.90;;;;;;4972088;28;20539;-81
2023/11/20 04:05:07;;;;;;;47.35;21.40;;;3.20;99.90;;;;;;4971668;28;20034;-74
2023/11/20 04:07:33;;;;;;;46.50;21.70;;;3.10;99.90;;;;;;4988997;28;20110;-75
2023/11/20 04:09:58;;;;;;;37.83;20.85;;;3.20;99.90;;;;;;4971984;28;20109;-75
2023/11/20 04:12:25;;;;;;;42.70;21.50;;;3.20;99.90;;;;;;5038380;28;20026;-75
2023/11/20 04:14:51;;;;;;;41.10;21.02;;;3.20;99.90;;;;;;5038368;28;20125;-75
2023/11/20 04:17:17;;;;;;;46.40;23.27;;;3.20;99.90;;;;;;5035112;28;20047;-74
2023/11/20 04:19:42;;;;;;;42.55;20.45;;;3.20;99.90;;;;;;4970134;28;20106;-79
2023/11/20 04:22:08;;;;;;;44.03;21.67;;;3.20;99.90;;;;;;5038012;28;20090;-80
2023/11/20 04:24:34;;;;;;;46.03;22.05;;;3.20;99.90;;;;;;5037825;28;20031;-74
2023/11/20 04:26:59;;;;;;;44.30;22.35;;;3.20;99.90;;;;;;4971634;28;20446;-80
2023/11/20 04:29:25;;;;;;;55.10;24.65;;;3.20;99.90;;;;;;4971492;28;20022;-80
2023/11/20 04:31:51;;;;;;;43.45;22.08;;;3.20;99.90;;;;;;5038138;28;20392;-80
2023/11/20 04:34:17;;;;;;;44.05;22.50;;;3.20;99.90;;;;;;4971748;28;20102;-80
2023/11/20 04:36:43;;;;;;;56.75;23.75;;;3.20;99.90;;;;;;4971435;28;20107;-80
2023/11/20 04:39:08;;;;;;;47.78;21.52;;;3.20;99.90;;;;;;4971694;28;20030;-80
2023/11/20 04:41:34;;;;;;;51.05;23.40;;;3.20;99.90;;;;;;5037560;28;20022;-80
2023/11/20 04:44:00;;;;;;;43.05;22.15;;;3.20;99.90;;;;;;4971515;28;20018;-80
2023/11/20 04:46:25;;;;;;;49.35;22.27;;;3.20;99.90;;;;;;5037603;28;20408;-81
2023/11/20 04:48:51;;;;;;;51.75;23.02;;;3.20;99.90;;;;;;4971395;28;20038;-81
2023/11/20 04:51:21;;;;;;;45.58;21.90;;;3.20;99.90;;;;;;4970884;28;20030;-75
2023/11/20 04:53:47;;;;;;;46.55;22.83;;;3.20;99.90;;;;;;4971580;28;20441;-80
2023/11/20 04:56:13;;;;;;;56.55;26.13;;;3.20;99.90;;;;;;5037457;28;20054;-75
2023/11/20 04:58:39;;;;;;;40.35;21.02;;;3.30;99.90;;;;;;4970872;28;20037;-81
2023/11/20 05:01:05;;;;;;;43.30;21.48;;;3.30;99.90;;;;;;4971124;28;20443;-75
2023/11/20 05:03:31;;;;;;;43.75;22.55;;;3.30;99.90;;;;;;5037584;28;20050;-75
2023/11/20 05:05:57;;;;;;;40.53;18.75;;;3.30;99.90;;;;;;5037212;28;20117;-75
2023/11/20 05:08:23;;;;;;;34.08;19.80;;;3.30;99.90;;;;;;5037673;28;20373;-75
2023/11/20 05:10:48;;;;;;;35.95;19.50;;;3.30;99.90;;;;;;5037416;28;20033;-75
2023/11/20 05:13:17;;;;;;;35.75;19.00;;;3.30;99.90;;;;;;5037514;28;20023;-81
2023/11/20 05:15:43;;;;;;;37.15;19.48;;;3.30;99.90;;;;;;4971065;28;20057;-81
2023/11/20 05:18:09;;;;;;;37.15;17.88;;;3.30;99.90;;;;;;5037718;28;20023;-80
2023/11/20 05:20:34;;;;;;;40.22;19.75;;;3.30;99.90;;;;;;4958121;28;20019;-75
2023/11/20 05:23:00;;;;;;;31.42;17.27;;;3.30;99.90;;;;;;5037643;28;20050;-75
2023/11/20 05:25:27;;;;;;;35.55;18.40;;;3.30;99.90;;;;;;4970798;28;20488;-81
2023/11/20 05:27:52;;;;;;;37.67;18.10;;;3.30;99.90;;;;;;4970945;28;20023;-75
2023/11/20 05:30:18;;;;;;;36.00;18.98;;;3.30;99.90;;;;;;5037439;28;20030;-75
2023/11/20 05:32:44;;;;;;;39.63;20.08;;;3.30;99.90;;;;;;4970937;28;20027;-75
2023/11/20 05:35:09;;;;;;;33.00;17.88;;;3.40;99.90;;;;;;5036893;28;20504;-80
2023/11/20 05:37:35;;;;;;;33.33;16.40;;;3.40;99.90;;;;;;4970886;28;20023;-75
2023/11/20 05:40:01;;;;;;;37.88;18.30;;;3.30;99.90;;;;;;4970508;28;20038;-81
2023/11/20 05:42:26;;;;;;;33.60;17.73;;;3.40;99.90;;;;;;4970779;28;20415;-81
2023/11/20 05:44:52;;;;;;;31.27;18.27;;;3.40;99.90;;;;;;5036672;28;20117;-81
2023/11/20 05:47:18;;;;;;;33.10;17.65;;;3.40;99.90;;;;;;4970604;28;20499;-81
2023/11/20 05:49:43;;;;;;;35.15;18.45;;;3.40;99.90;;;;;;4970449;28;20026;-74
2023/11/20 05:52:09;;;;;;;31.63;15.63;;;3.40;99.90;;;;;;4970143;28;20022;-80
2023/11/20 05:54:35;;;;;;;30.65;18.10;;;3.40;99.90;;;;;;5036150;28;20027;-81
2023/11/20 05:57:01;;;;;;;34.17;18.35;;;3.40;99.90;;;;;;5035552;28;20538;-80
2023/11/20 05:59:26;;;;;;;30.70;16.52;;;3.40;99.90;;;;;;4962440;28;20019;-80
2023/11/20 06:01:52;;;;;;;35.08;16.45;;;3.40;99.90;;;;;;5036150;28;20038;-75
2023/11/20 06:04:18;;;;;;;28.05;15.43;;;3.40;99.90;;;;;;5037995;28;20046;-75
2023/11/20 06:06:44;;;;;;;26.35;14.93;;;3.40;99.90;;;;;;5039939;28;20038;-75
2023/11/20 06:09:12;;;;;;;28.05;16.38;;;3.40;99.90;;;;;;4972737;28;20023;-76
2023/11/20 06:11:39;;;;;;;34.95;17.10;;;3.40;99.90;;;;;;5039911;28;20026;-76
2023/11/20 06:14:04;;;;;;;34.13;18.23;;;3.50;99.90;;;;;;5040822;28;20569;-76
2023/11/20 06:16:30;;;;;;;33.80;18.17;;;3.40;99.90;;;;;;5040437;28;20335;-76
2023/11/20 06:18:56;;;;;;;26.80;15.60;;;3.50;99.90;;;;;;5040639;28;20011;-76
2023/11/20 06:21:22;;;;;;;31.15;16.75;;;3.50;99.90;;;;;;5039916;28;20079;-81
2023/11/20 06:23:48;;;;;;;30.17;16.73;;;3.50;99.90;;;;;;4973654;28;20524;-81
2023/11/20 06:26:14;;;;;;;30.13;17.25;;;3.50;99.90;;;;;;4973142;28;20110;-76
2023/11/20 06:28:41;;;;;;;31.65;16.35;;;3.50;99.90;;;;;;5009350;28;20383;-82
2023/11/20 06:31:11;;;;;;;34.50;17.50;;;3.50;99.90;;;;;;5040324;28;20029;-76
2023/11/20 06:33:37;;;;;;;30.77;16.27;;;3.50;99.90;;;;;;4972860;28;20057;-81
2023/11/20 06:36:03;;;;;;;30.60;15.70;;;3.50;99.90;;;;;;4972242;28;20023;-81
2023/11/20 06:38:29;;;;;;;27.48;16.33;;;3.50;99.90;;;;;;4970470;28;20061;-75
2023/11/20 06:40:56;;;;;;;30.30;17.15;;;3.50;99.90;;;;;;5039673;28;20443;-75
2023/11/20 06:43:22;;;;;;;28.48;16.35;;;3.50;99.90;;;;;;4973046;28;20049;-75
2023/11/20 06:45:47;;;;;;;27.00;15.43;;;3.60;99.90;;;;;;4972743;28;20043;-80
2023/11/20 06:48:13;;;;;;;28.55;15.90;;;3.60;99.90;;;;;;4972750;28;20148;-81
2023/11/20 06:50:38;;;;;;;33.03;17.17;;;3.60;99.90;;;;;;4973062;28;20031;-75
2023/11/20 06:53:04;;;;;;;34.30;17.80;;;3.60;99.90;;;;;;5039826;28;20109;-75
2023/11/20 06:55:30;;;;;;;35.47;19.95;;;3.60;99.90;;;;;;4972934;28;20027;-75
2023/11/20 06:57:56;;;;;;;36.38;18.75;;;3.60;99.90;;;;;;4971612;28;20102;-81
2023/11/20 07:00:22;;;;;;;35.90;19.48;;;3.60;99.90;;;;;;5037530;28;20118;-76
2023/11/20 07:02:47;;;;;;;33.88;17.92;;;3.60;99.90;;;;;;5035032;28;20380;-82
2023/11/20 07:05:17;;;;;;;34.33;19.50;;;3.60;99.90;;;;;;5049774;28;20025;-81
2023/11/20 07:07:53;;;;;;;37.50;19.13;;;3.60;99.90;;;;;;5050925;28;20532;-79
2023/11/20 07:10:23;;;;;;;41.47;19.33;;;3.70;99.90;;;;;;5050771;28;20090;-76
2023/11/20 07:12:51;;;;;;;36.03;19.17;;;3.60;99.90;;;;;;5050399;28;20017;-77
2023/11/20 07:15:17;;;;;;;34.70;19.77;;;3.70;99.90;;;;;;5046067;28;20036;-81
2023/11/20 07:17:43;;;;;;;33.50;19.52;;;3.70;99.90;;;;;;5050362;28;20025;-81
2023/11/20 07:20:10;;;;;;;35.67;19.92;;;3.70;99.90;;;;;;5052765;28;20021;-82
2023/11/20 07:22:35;;;;;;;34.60;20.00;;;3.70;99.90;;;;;;5051491;28;20028;-76
2023/11/20 07:25:01;;;;;;;39.42;20.00;;;3.70;99.90;;;;;;5050926;28;20021;-81
2023/11/20 07:27:27;;;;;;;43.97;22.77;;;3.70;99.90;;;;;;5051063;28;20017;-76
2023/11/20 07:29:53;;;;;;;45.58;21.42;;;3.70;99.90;;;;;;5052326;28;20144;-76
2023/11/20 07:32:19;;;;;;;38.38;19.33;;;3.70;99.90;;;;;;5050945;28;20378;-81
2023/11/20 07:34:44;;;;;;;39.47;19.73;;;3.80;99.90;;;;;;5051078;28;20025;-80
2023/11/20 07:37:10;;;;;;;35.35;19.73;;;3.80;99.90;;;;;;5053689;28;20418;-81
2023/11/20 07:39:36;;;;;;;43.08;22.27;;;3.80;99.90;;;;;;5054042;28;20021;-76
2023/11/20 07:42:01;;;;;;;40.53;21.55;;;3.80;99.90;;;;;;5054076;28;20021;-76
2023/11/20 07:44:27;;;;;;;42.55;21.23;;;3.80;99.90;;;;;;5054075;28;20168;-82
2023/11/20 07:46:52;;;;;;;35.67;19.27;;;3.80;99.90;;;;;;5053822;28;20035;-76
2023/11/20 07:49:21;;;;;;;42.78;21.55;;;3.80;99.90;;;;;;5052661;28;20032;-76
2023/11/20 07:51:47;;;;;;;48.13;23.42;;;3.80;99.90;;;;;;5054190;28;20052;-76
2023/11/20 07:54:12;;;;;;;43.33;21.00;;;3.80;99.90;;;;;;5052355;28;20569;-81
2023/11/20 07:56:38;;;;;;;41.85;21.58;;;3.90;99.90;;;;;;5053864;28;20021;-76
2023/11/20 07:59:04;;;;;;;42.25;19.30;;;3.90;99.90;;;;;;5052470;28;20021;-77
2023/11/20 08:01:29;;;;;;;46.63;23.20;;;3.90;99.90;;;;;;5052359;28;20029;-81
2023/11/20 08:03:55;;;;;;;43.55;21.13;;;3.90;99.90;;;;;;4981178;28;20059;-77
2023/11/20 08:06:21;;;;;;;44.40;21.77;;;3.90;99.90;;;;;;5026291;28;20130;-77
2023/11/20 08:08:48;;;;;;;38.38;21.15;;;3.90;99.90;;;;;;5038531;28;20031;-81
2023/11/20 08:11:14;;;;;;;40.45;22.33;;;3.90;99.90;;;;;;5038681;28;20019;-77
2023/11/20 08:13:39;;;;;;;39.80;20.73;;;4.00;99.90;;;;;;5038767;28;20075;-76
2023/11/20 08:16:05;;;;;;;48.50;25.13;;;4.00;99.90;;;;;;4971956;28;20108;-77
2023/11/20 08:18:33;;;;;;;53.40;27.70;;;4.00;99.90;;;;;;5038615;28;20481;-81
2023/11/20 08:20:59;;;;;;;47.65;25.73;;;4.00;99.90;;;;;;5038327;28;20383;-76
2023/11/20 08:23:24;;;;;;;50.13;23.55;;;4.00;99.90;;;;;;5038342;28;20026;-77
2023/11/20 08:25:50;;;;;;;49.03;24.92;;;4.00;99.90;;;;;;5037733;28;20120;-76
2023/11/20 08:28:16;;;;;;;47.85;24.92;;;4.10;99.90;;;;;;5038133;28;20053;-76
2023/11/20 08:30:41;;;;;;;51.28;25.10;;;4.10;99.90;;;;;;4971848;28;20035;-82
2023/11/20 08:33:10;;;;;;;44.97;25.52;;;4.10;99.90;;;;;;4971573;28;20025;-77
2023/11/20 08:35:36;;;;;;;53.63;27.55;;;4.10;99.90;;;;;;4971691;28;20019;-76
2023/11/20 08:38:01;;;;;;;55.75;28.40;;;4.10;99.90;;;;;;5038322;28;20027;-81
2023/11/20 08:40:27;;;;;;;49.22;24.65;;;4.20;99.90;;;;;;4971861;28;20015;-81
2023/11/20 08:42:53;;;;;;;54.20;27.48;;;4.20;99.90;;;;;;4971301;28;20030;-77
2023/11/20 08:45:19;;;;;;;50.10;26.55;;;4.20;99.90;;;;;;4971434;28;20102;-76
2023/11/20 08:47:45;;;;;;;47.20;24.40;;;4.20;99.90;;;;;;5037910;28;20058;-81
2023/11/20 08:50:11;;;;;;;49.25;26.58;;;4.20;99.90;;;;;;4971554;28;20059;-77
2023/11/20 08:52:37;;;;;;;50.55;26.33;;;4.20;99.90;;;;;;5037652;28;20485;-77
2023/11/20 08:55:05;;;;;;;53.95;27.30;;;4.20;99.90;;;;;;5038131;28;20065;-77
2023/11/20 08:57:30;;;;;;;49.97;26.08;;;4.20;99.90;;;;;;5000660;28;20027;-81
2023/11/20 08:59:57;;;;;;;53.13;27.08;;;4.20;99.90;;;;;;5038044;28;20027;-81
2023/11/20 09:02:23;;;;;;;54.58;24.98;;;4.20;99.90;;;;;;4970769;28;20043;-74
2023/11/20 09:04:49;;;;;;;58.90;27.95;;;4.20;99.90;;;;;;5037701;28;20036;-76
2023/11/20 09:07:15;;;;;;;50.72;25.52;;;4.30;99.90;;;;;;4989328;28;20031;-76
2023/11/20 09:09:41;;;;;;;48.97;25.38;;;4.30;99.90;;;;;;5037873;28;20392;-77
2023/11/20 09:12:07;;;;;;;52.40;25.10;;;4.30;99.90;;;;;;5037391;28;20530;-82
2023/11/20 09:14:33;;;;;;;57.80;27.17;;;4.30;99.90;;;;;;4971334;28;20019;-81
2023/11/20 09:16:59;;;;;;;42.45;22.48;;;4.40;99.90;;;;;;4970825;28;20137;-81
2023/11/20 09:19:25;;;;;;;44.53;23.40;;;4.30;99.90;;;;;;4971082;28;20023;-76
2023/11/20 09:21:50;;;;;;;40.67;22.45;;;4.30;99.90;;;;;;4970831;28;20026;-81
2023/11/20 09:24:16;;;;;;;45.55;22.33;;;4.30;99.90;;;;;;4971048;28;20030;-81
2023/11/20 09:26:42;;;;;;;44.63;22.73;;;4.30;99.90;;;;;;5033549;28;20393;-81
2023/11/20 09:29:10;;;;;;;45.05;22.70;;;4.30;99.90;;;;;;5033317;28;20022;-77
2023/11/20 09:31:36;;;;;;;44.25;23.50;;;4.40;99.90;;;;;;5031620;28;20012;-81
2023/11/20 09:34:02;;;;;;;48.33;24.70;;;4.40;99.90;;;;;;5037107;28;20069;-80
2023/11/20 09:36:28;;;;;;;42.60;23.08;;;4.40;99.90;;;;;;5037611;28;20030;-81
2023/11/20 09:38:54;;;;;;;44.50;23.55;;;4.40;99.90;;;;;;5041596;28;20027;-81
2023/11/20 09:41:20;;;;;;;44.90;23.40;;;4.40;99.90;;;;;;4974148;28;20038;-80
2023/11/20 09:43:48;;;;;;;44.13;22.45;;;4.40;99.90;;;;;;5041503;28;20114;-81
2023/11/20 09:46:15;;;;;;;38.85;21.33;;;4.40;99.90;;;;;;5035709;28;20042;-81
2023/11/20 09:48:43;;;;;;;39.78;22.13;;;4.40;99.90;;;;;;4974277;28;20561;-77
2023/11/20 09:51:10;;;;;;;42.20;21.63;;;4.40;99.90;;;;;;5041034;28;20034;-81
2023/11/20 09:53:39;;;;;;;43.17;21.48;;;4.40;99.90;;;;;;4974208;28;20054;-81
2023/11/20 09:56:09;;;;;;;36.05;20.92;;;4.50;99.90;;;;;;4973927;28;20023;-77
2023/11/20 09:58:36;;;;;;;39.92;21.05;;;4.50;99.90;;;;;;4973998;28;20045;-81
2023/11/20 10:01:21;;;;;;;39.10;19.63;;;4.40;99.90;;;;;;5040867;28;20030;-76
2023/11/20 10:03:51;;;;;;;38.53;20.50;;;4.40;99.90;;;;;;4968662;28;20047;-81
2023/11/20 10:06:21;;;;;;;42.80;23.23;;;4.40;99.90;;;;;;5040815;28;20041;-81
2023/11/20 10:08:48;;;;;;;42.58;23.50;;;4.50;99.90;;;;;;5040844;28;20022;-82
2023/11/20 10:11:21;;;;;;;47.40;21.95;;;4.50;99.90;;;;;;4973858;28;20034;-76
2023/11/20 10:13:47;;;;;;;39.92;21.80;;;4.50;99.90;;;;;;4973995;28;20027;-81
2023/11/20 10:16:23;;;;;;;38.33;20.67;;;4.50;99.90;;;;;;5040695;28;20045;-82
2023/11/20 10:18:49;;;;;;;37.72;21.77;;;4.50;99.90;;;;;;4973472;28;20026;-81
2023/11/20 10:21:18;;;;;;;41.45;23.65;;;4.60;99.90;;;;;;5040765;28;20392;-76
2023/11/20 10:23:43;;;;;;;40.22;22.15;;;4.60;99.90;;;;;;4973601;28;20026;-77
2023/11/20 10:26:09;;;;;;;35.17;20.10;;;4.60;99.90;;;;;;5040326;28;20100;-82
2023/11/20 10:28:39;;;;;;;43.75;22.45;;;4.60;99.90;;;;;;5039306;28;20011;-76
2023/11/20 10:31:05;;;;;;;36.67;21.98;;;4.70;99.90;;;;;;5040291;28;20034;-76
2023/11/20 10:33:31;;;;;;;34.13;20.17;;;4.70;99.90;;;;;;4973387;28;20027;-77
2023/11/20 10:36:16;;;;;;;38.38;20.27;;;4.70;99.90;;;;;;5040200;28;20381;-81
2023/11/20 10:38:43;;;;;;;40.92;21.92;;;4.70;99.90;;;;;;4973225;28;20049;-81
2023/11/20 10:41:09;;;;;;;37.92;20.85;;;4.70;99.90;;;;;;4973178;28;20114;-81
2023/11/20 10:43:41;;;;;;;41.85;22.98;;;4.70;99.90;;;;;;4973493;28;20050;-81
2023/11/20 10:46:06;;;;;;;37.07;19.13;;;4.70;99.90;;;;;;4967562;28;20047;-82
2023/11/20 10:48:42;;;;;;;30.70;19.50;;;4.70;99.90;;;;;;4972113;28;20045;-82
2023/11/20 10:51:09;;;;;;;28.55;17.90;;;4.70;99.90;;;;;;4972978;28;20043;-76
2023/11/20 10:53:39;;;;;;;35.58;19.30;;;4.70;99.90;;;;;;5040094;28;20019;-77
2023/11/20 10:56:06;;;;;;;31.40;18.15;;;4.70;99.90;;;;;;5039815;28;20513;-83
2023/11/20 10:58:33;;;;;;;31.75;19.33;;;4.70;99.90;;;;;;5040329;28;20112;-82
2023/11/20 11:00:59;;;;;;;34.20;20.73;;;4.80;99.90;;;;;;4972954;28;20026;-82
2023/11/20 11:03:30;;;;;;;36.05;19.13;;;4.80;99.90;;;;;;4972591;28;20042;-81
2023/11/20 11:06:00;;;;;;;35.95;19.27;;;4.80;99.90;;;;;;5037218;28;20050;-77
2023/11/20 11:08:28;;;;;;;35.25;19.98;;;4.80;99.90;;;;;;4968671;28;20038;-77
2023/11/20 11:10:54;;;;;;;36.63;19.80;;;4.80;99.90;;;;;;4971400;28;20030;-77
2023/11/20 11:13:23;;;;;;;32.67;20.20;;;4.90;99.90;;;;;;5027426;28;20026;-77
2023/11/20 11:15:52;;;;;;;37.55;20.35;;;4.90;99.90;;;;;;5038435;28;20027;-82
2023/11/20 11:18:25;;;;;;;34.03;19.13;;;4.90;99.90;;;;;;5028204;28;20561;-77
2023/11/20 11:20:53;;;;;;;;;;;4.90;99.90;;;;;;4973220;28;20034;-81
2023/11/20 11:23:49;;;;;;;31.08;18.60;;;5.00;99.90;;;;;;5038701;28;20346;-81
2023/11/20 11:26:40;;;;;;;36.45;19.35;;;5.00;99.90;;;;;;4968862;28;20084;-82
2023/11/20 11:29:12;;;;;;;47.03;29.98;;;5.00;99.90;;;;;;5038771;28;20496;-82
2023/11/20 11:32:06;;;;;;;63.20;35.75;;;5.00;99.90;;;;;;4971849;28;20022;-82
2023/11/20 11:34:41;;;;;;;57.42;33.40;;;5.00;99.90;;;;;;4971433;28;20026;-82
2023/11/20 11:37:30;;;;;;;37.63;23.88;;;5.00;99.90;;;;;;4972150;28;20080;-77
2023/11/20 11:40:23;;;;;;;51.22;30.02;;;5.00;99.90;;;;;;5039922;28;20092;-77
2023/11/20 11:42:55;;;;;;;65.05;37.88;;;5.00;99.90;;;;;;5038651;28;20468;-77
2023/11/20 11:45:27;;;;;;;34.05;21.48;;;5.00;99.90;;;;;;5023621;28;20604;-78
2023/11/20 11:47:52;;;;;;;63.08;38.50;;;5.00;99.90;;;;;;4972380;28;20073;-77
2023/11/20 11:50:18;;;;;;;179.40;97.18;;;5.00;99.90;;;;;;5038534;28;20035;-77
2023/11/20 11:52:48;;;;;;;190.15;112.18;;;5.10;99.90;;;;;;5035014;28;20031;-77
2023/11/20 11:55:15;;;;;;;145.18;86.45;;;5.10;99.90;;;;;;5033703;28;20030;-77
2023/11/20 11:57:41;;;;;;;100.30;60.03;;;5.10;99.90;;;;;;5034001;28;20023;-81
2023/11/20 12:00:26;;;;;;;94.13;54.17;;;5.10;99.90;;;;;;4970332;28;20030;-81
2023/11/20 12:02:52;;;;;;;191.90;103.95;;;5.10;99.90;;;;;;5038404;28;20047;-82
2023/11/20 12:05:18;;;;;;;141.50;75.43;;;5.20;99.90;;;;;;4971902;28;20396;-81
2023/11/20 12:07:47;;;;;;;101.97;61.10;;;5.20;99.90;;;;;;4971786;28;20023;-81
2023/11/20 12:10:13;;;;;;;81.18;46.95;;;5.20;99.90;;;;;;5037832;28;20076;-77
2023/11/20 12:12:48;;;;;;;66.93;39.45;;;5.20;99.90;;;;;;5038690;28;20472;-76
2023/11/20 12:15:51;;;;;;;115.30;65.53;;;5.20;99.90;;;;;;5038555;28;20023;-78
2023/11/20 12:18:28;;;;;;;129.73;72.22;;;5.20;99.90;;;;;;5038596;28;20029;-76
2023/11/20 12:20:57;;;;;;;110.28;61.25;;;5.20;99.90;;;;;;5037680;28;20015;-76
2023/11/20 12:23:28;;;;;;;110.57;58.15;;;5.20;99.90;;;;;;5038463;28;20068;-74
2023/11/20 12:25:54;;;;;;;99.90;55.30;;;5.10;99.90;;;;;;4971344;28;20031;-73
2023/11/20 12:28:22;;;;;;;116.90;66.32;;;5.20;99.90;;;;;;5044796;28;20043;-75
2023/11/20 12:30:48;;;;;;;105.88;59.65;;;5.10;99.90;;;;;;5029049;28;20019;-74
2023/11/20 12:33:29;;;;;;;214.02;115.10;;;5.10;99.90;;;;;;5105919;27;20384;-76
2023/11/20 12:35:57;;;;;;;132.68;59.55;;;5.10;99.90;;;;;;5088257;28;20052;-75